sensor_id;sensor_type;location;lat;lon;timestamp;pressure;altitude;pressure_sealevel;temperature;humidity
68193;BME280;55012;47.562;18.414;2022-10-16T00:01:23;100214.16;;;12.61;100.00
68193;BME280;55012;47.562;18.414;2022-10-16T00:03:49;100207.59;;;12.62;100.00
68193;BME280;55012;47.562;18.414;2022-10-16T00:06:16;100211.91;;;12.63;100.00
68193;BME280;55012;47.562;18.414;2022-10-16T00:08:42;100217.78;;;12.65;100.00
68193;BME280;55012;47.562;18.414;2022-10-16T00:11:20;100210.91;;;12.68;100.00
68193;BME280;55012;47.562;18.414;2022-10-16T00:13:48;100218.25;;;12.68;100.00
68193;BME280;55012;47.562;18.414;2022-10-16T00:16:14;100211.69;;;12.69;100.00
68193;BME280;55012;47.562;18.414;2022-10-16T00:18:40;100216.69;;;12.67;100.00
68193;BME280;55012;47.562;18.414;2022-10-16T00:21:12;100219.94;;;12.60;100.00
68193;BME280;55012;47.562;18.414;2022-10-16T00:23:38;100221.94;;;12.51;100.00
68193;BME280;55012;47.562;18.414;2022-10-16T00:26:07;100231.25;;;12.41;100.00
68193;BME280;55012;47.562;18.414;2022-10-16T00:28:34;100235.16;;;12.31;100.00
68193;BME280;55012;47.562;18.414;2022-10-16T00:31:06;100238.75;;;12.23;100.00
68193;BME280;55012;47.562;18.414;2022-10-16T00:33:32;100230.69;;;12.15;100.00
68193;BME280;55012;47.562;18.414;2022-10-16T00:35:59;100240.94;;;12.09;100.00
68193;BME280;55012;47.562;18.414;2022-10-16T00:38:24;100240.00;;;12.05;100.00
68193;BME280;55012;47.562;18.414;2022-10-16T00:40:50;100223.94;;;12.00;100.00
68193;BME280;55012;47.562;18.414;2022-10-16T00:48:48;100223.06;;;11.87;100.00
68193;BME280;55012;47.562;18.414;2022-10-16T00:51:18;100224.53;;;11.85;100.00
68193;BME280;55012;47.562;18.414;2022-10-16T00:53:44;100218.63;;;11.82;100.00
68193;BME280;55012;47.562;18.414;2022-10-16T00:56:11;100226.75;;;11.82;100.00
68193;BME280;55012;47.562;18.414;2022-10-16T00:58:36;100216.22;;;11.81;100.00
68193;BME280;55012;47.562;18.414;2022-10-16T01:01:02;100219.59;;;11.78;100.00
68193;BME280;55012;47.562;18.414;2022-10-16T01:03:28;100209.06;;;11.76;100.00
68193;BME280;55012;47.562;18.414;2022-10-16T01:06:23;100214.00;;;11.74;100.00
68193;BME280;55012;47.562;18.414;2022-10-16T01:08:58;100215.00;;;11.70;100.00
68193;BME280;55012;47.562;18.414;2022-10-16T01:14:37;100218.69;;;11.65;100.00
68193;BME280;55012;47.562;18.414;2022-10-16T01:17:12;100211.22;;;11.62;100.00
68193;BME280;55012;47.562;18.414;2022-10-16T01:22:15;100207.25;;;11.60;100.00
68193;BME280;55012;47.562;18.414;2022-10-16T01:24:46;100196.25;;;11.56;100.00
68193;BME280;55012;47.562;18.414;2022-10-16T01:27:20;100205.19;;;11.57;100.00
68193;BME280;55012;47.562;18.414;2022-10-16T01:30:04;100200.91;;;11.56;100.00
68193;BME280;55012;47.562;18.414;2022-10-16T01:32:41;100198.06;;;11.52;100.00
68193;BME280;55012;47.562;18.414;2022-10-16T01:35:14;100197.56;;;11.50;100.00
68193;BME280;55012;47.562;18.414;2022-10-16T01:37:46;100200.16;;;11.46;100.00
68193;BME280;55012;47.562;18.414;2022-10-16T01:40:16;100198.09;;;11.43;100.00
68193;BME280;55012;47.562;18.414;2022-10-16T01:42:55;100207.66;;;11.41;100.00
68193;BME280;55012;47.562;18.414;2022-10-16T01:45:22;100205.16;;;11.36;100.00
68193;BME280;55012;47.562;18.414;2022-10-16T01:47:49;100207.88;;;11.36;100.00
68193;BME280;55012;47.562;18.414;2022-10-16T01:50:18;100214.69;;;11.33;100.00
68193;BME280;55012;47.562;18.414;2022-10-16T01:52:48;100211.88;;;11.30;100.00
68193;BME280;55012;47.562;18.414;2022-10-16T01:55:22;100219.06;;;11.25;100.00
68193;BME280;55012;47.562;18.414;2022-10-16T01:57:51;100220.16;;;11.24;100.00
68193;BME280;55012;47.562;18.414;2022-10-16T02:00:20;100220.03;;;11.21;100.00
68193;BME280;55012;47.562;18.414;2022-10-16T02:02:49;100216.53;;;11.20;100.00
68193;BME280;55012;47.562;18.414;2022-10-16T02:05:30;100224.19;;;11.18;100.00
68193;BME280;55012;47.562;18.414;2022-10-16T02:07:57;100224.81;;;11.15;100.00
68193;BME280;55012;47.562;18.414;2022-10-16T02:10:23;100213.84;;;11.12;100.00
68193;BME280;55012;47.562;18.414;2022-10-16T02:13:06;100225.63;;;11.07;100.00
68193;BME280;55012;47.562;18.414;2022-10-16T02:15:32;100225.19;;;11.05;100.00
68193;BME280;55012;47.562;18.414;2022-10-16T02:17:57;100212.91;;;10.99;100.00
68193;BME280;55012;47.562;18.414;2022-10-16T02:20:27;100213.25;;;10.97;100.00
68193;BME280;55012;47.562;18.414;2022-10-16T02:22:54;100212.78;;;10.95;100.00
68193;BME280;55012;47.562;18.414;2022-10-16T02:25:30;100211.81;;;10.91;100.00
68193;BME280;55012;47.562;18.414;2022-10-16T02:30:44;100215.53;;;10.87;100.00
68193;BME280;55012;47.562;18.414;2022-10-16T02:33:13;100217.75;;;10.85;100.00
68193;BME280;55012;47.562;18.414;2022-10-16T02:35:40;100211.84;;;10.83;100.00
68193;BME280;55012;47.562;18.414;2022-10-16T02:38:07;100209.81;;;10.80;100.00
68193;BME280;55012;47.562;18.414;2022-10-16T02:40:33;100209.00;;;10.79;100.00
68193;BME280;55012;47.562;18.414;2022-10-16T02:42:59;100218.25;;;10.78;100.00
68193;BME280;55012;47.562;18.414;2022-10-16T02:45:25;100211.53;;;10.76;100.00
68193;BME280;55012;47.562;18.414;2022-10-16T02:47:51;100224.78;;;10.77;100.00
68193;BME280;55012;47.562;18.414;2022-10-16T02:50:16;100211.41;;;10.72;100.00
68193;BME280;55012;47.562;18.414;2022-10-16T02:52:42;100210.63;;;10.72;100.00
68193;BME280;55012;47.562;18.414;2022-10-16T02:55:08;100206.31;;;10.71;100.00
68193;BME280;55012;47.562;18.414;2022-10-16T02:57:33;100196.16;;;10.67;100.00
68193;BME280;55012;47.562;18.414;2022-10-16T02:59:59;100195.66;;;10.65;100.00
68193;BME280;55012;47.562;18.414;2022-10-16T03:02:25;100200.13;;;10.61;100.00
68193;BME280;55012;47.562;18.414;2022-10-16T03:04:51;100202.38;;;10.59;100.00
68193;BME280;55012;47.562;18.414;2022-10-16T03:07:16;100201.41;;;10.55;100.00
68193;BME280;55012;47.562;18.414;2022-10-16T03:09:41;100199.34;;;10.52;100.00
68193;BME280;55012;47.562;18.414;2022-10-16T03:12:07;100200.78;;;10.50;100.00
68193;BME280;55012;47.562;18.414;2022-10-16T03:14:33;100198.72;;;10.47;100.00
68193;BME280;55012;47.562;18.414;2022-10-16T03:16:59;100198.72;;;10.47;100.00
68193;BME280;55012;47.562;18.414;2022-10-16T03:19:24;100209.06;;;10.45;100.00
68193;BME280;55012;47.562;18.414;2022-10-16T03:21:50;100205.56;;;10.44;100.00
68193;BME280;55012;47.562;18.414;2022-10-16T03:24:15;100196.97;;;10.42;100.00
68193;BME280;55012;47.562;18.414;2022-10-16T03:26:41;100199.19;;;10.40;100.00
68193;BME280;55012;47.562;18.414;2022-10-16T03:29:06;100198.72;;;10.38;100.00
68193;BME280;55012;47.562;18.414;2022-10-16T03:31:32;100208.75;;;10.37;100.00
68193;BME280;55012;47.562;18.414;2022-10-16T03:33:58;100200.16;;;10.35;100.00
68193;BME280;55012;47.562;18.414;2022-10-16T03:36:23;100190.75;;;10.33;100.00
68193;BME280;55012;47.562;18.414;2022-10-16T03:38:48;100193.00;;;10.31;100.00
68193;BME280;55012;47.562;18.414;2022-10-16T03:41:14;100182.84;;;10.28;100.00
68193;BME280;55012;47.562;18.414;2022-10-16T03:43:40;100191.28;;;10.26;100.00
68193;BME280;55012;47.562;18.414;2022-10-16T03:46:05;100196.19;;;10.24;100.00
68193;BME280;55012;47.562;18.414;2022-10-16T03:48:31;100196.50;;;10.23;100.00
68193;BME280;55012;47.562;18.414;2022-10-16T03:50:57;100194.88;;;10.22;100.00
68193;BME280;55012;47.562;18.414;2022-10-16T03:53:23;100189.81;;;10.20;100.00
68193;BME280;55012;47.562;18.414;2022-10-16T03:55:49;100128.22;;;10.17;100.00
68193;BME280;55012;47.562;18.414;2022-10-16T03:58:14;100119.66;;;10.15;100.00
68193;BME280;55012;47.562;18.414;2022-10-16T04:00:41;100105.66;;;10.13;100.00
68193;BME280;55012;47.562;18.414;2022-10-16T04:03:07;100102.97;;;10.13;100.00
68193;BME280;55012;47.562;18.414;2022-10-16T04:05:32;100103.28;;;10.11;100.00
68193;BME280;55012;47.562;18.414;2022-10-16T04:07:58;100090.41;;;10.08;100.00
68193;BME280;55012;47.562;18.414;2022-10-16T04:10:23;100086.91;;;10.08;100.00
68193;BME280;55012;47.562;18.414;2022-10-16T04:12:49;100090.41;;;10.08;100.00
68193;BME280;55012;47.562;18.414;2022-10-16T04:15:14;100093.41;;;10.07;100.00
68193;BME280;55012;47.562;18.414;2022-10-16T04:17:40;100092.63;;;10.06;100.00
68193;BME280;55012;47.562;18.414;2022-10-16T04:20:05;100093.28;;;10.03;100.00
68193;BME280;55012;47.562;18.414;2022-10-16T04:22:31;100091.19;;;10.00;100.00
68193;BME280;55012;47.562;18.414;2022-10-16T04:24:56;100098.22;;;10.01;100.00
68193;BME280;55012;47.562;18.414;2022-10-16T04:27:22;100090.41;;;10.00;100.00
68193;BME280;55012;47.562;18.414;2022-10-16T04:29:47;100099.63;;;9.99;100.00
68193;BME280;55012;47.562;18.414;2022-10-16T04:32:13;100084.22;;;9.99;100.00
68193;BME280;55012;47.562;18.414;2022-10-16T04:34:39;100085.31;;;9.98;100.00
68193;BME280;55012;47.562;18.414;2022-10-16T04:37:05;100088.34;;;9.97;100.00
68193;BME280;55012;47.562;18.414;2022-10-16T04:39:30;100089.47;;;9.96;100.00
68193;BME280;55012;47.562;18.414;2022-10-16T04:41:56;100075.50;;;9.94;100.00
68193;BME280;55012;47.562;18.414;2022-10-16T04:44:21;100077.41;;;9.93;100.00
68193;BME280;55012;47.562;18.414;2022-10-16T04:46:47;100070.69;;;9.91;100.00
68193;BME280;55012;47.562;18.414;2022-10-16T04:49:12;100083.44;;;9.90;100.00
68193;BME280;55012;47.562;18.414;2022-10-16T04:51:38;100080.25;;;9.88;100.00
68193;BME280;55012;47.562;18.414;2022-10-16T04:54:03;100079.78;;;9.86;100.00
68193;BME280;55012;47.562;18.414;2022-10-16T04:56:29;100084.22;;;9.82;100.00
68193;BME280;55012;47.562;18.414;2022-10-16T04:58:54;100095.34;;;9.80;100.00
68193;BME280;55012;47.562;18.414;2022-10-16T05:01:20;100093.78;;;9.79;100.00
68193;BME280;55012;47.562;18.414;2022-10-16T05:03:45;100084.41;;;9.77;100.00
68193;BME280;55012;47.562;18.414;2022-10-16T05:06:11;100092.19;;;9.78;100.00
68193;BME280;55012;47.562;18.414;2022-10-16T05:08:36;100096.00;;;9.77;100.00
68193;BME280;55012;47.562;18.414;2022-10-16T05:11:01;100111.09;;;9.78;100.00
68193;BME280;55012;47.562;18.414;2022-10-16T05:13:27;100120.78;;;9.79;100.00
68193;BME280;55012;47.562;18.414;2022-10-16T05:15:53;100110.31;;;9.78;100.00
68193;BME280;55012;47.562;18.414;2022-10-16T05:18:18;100113.47;;;9.80;100.00
68193;BME280;55012;47.562;18.414;2022-10-16T05:20:44;100116.97;;;9.80;100.00
68193;BME280;55012;47.562;18.414;2022-10-16T05:23:09;100117.75;;;9.81;100.00
68193;BME280;55012;47.562;18.414;2022-10-16T05:25:37;100121.25;;;9.81;100.00
68193;BME280;55012;47.562;18.414;2022-10-16T05:28:03;100128.72;;;9.84;100.00
68193;BME280;55012;47.562;18.414;2022-10-16T05:30:29;100130.00;;;9.87;100.00
68193;BME280;55012;47.562;18.414;2022-10-16T05:32:54;100138.28;;;9.91;100.00
68193;BME280;55012;47.562;18.414;2022-10-16T05:35:20;100140.66;;;9.92;100.00
68193;BME280;55012;47.562;18.414;2022-10-16T05:37:46;100152.75;;;9.95;100.00
68193;BME280;55012;47.562;18.414;2022-10-16T05:40:12;100147.50;;;9.98;100.00
68193;BME280;55012;47.562;18.414;2022-10-16T05:42:39;100152.91;;;9.98;100.00
68193;BME280;55012;47.562;18.414;2022-10-16T05:45:05;100178.19;;;10.02;100.00
68193;BME280;55012;47.562;18.414;2022-10-16T05:47:31;100179.78;;;10.03;100.00
68193;BME280;55012;47.562;18.414;2022-10-16T05:49:57;100187.25;;;10.06;100.00
68193;BME280;55012;47.562;18.414;2022-10-16T05:52:22;100195.22;;;10.11;100.00
68193;BME280;55012;47.562;18.414;2022-10-16T05:54:47;100201.88;;;10.14;100.00
68193;BME280;55012;47.562;18.414;2022-10-16T05:57:13;100210.66;;;10.20;100.00
68193;BME280;55012;47.562;18.414;2022-10-16T05:59:38;100212.72;;;10.23;100.00
68193;BME280;55012;47.562;18.414;2022-10-16T06:02:04;100211.13;;;10.22;100.00
68193;BME280;55012;47.562;18.414;2022-10-16T06:04:29;100209.69;;;10.24;100.00
68193;BME280;55012;47.562;18.414;2022-10-16T06:06:58;100221.81;;;10.27;100.00
68193;BME280;55012;47.562;18.414;2022-10-16T06:09:25;100222.59;;;10.27;100.00
68193;BME280;55012;47.562;18.414;2022-10-16T06:11:51;100229.28;;;10.30;100.00
68193;BME280;55012;47.562;18.414;2022-10-16T06:14:16;100244.72;;;10.29;100.00
68193;BME280;55012;47.562;18.414;2022-10-16T06:16:42;100256.97;;;10.35;100.00
68193;BME280;55012;47.562;18.414;2022-10-16T06:19:07;100259.03;;;10.38;100.00
68193;BME280;55012;47.562;18.414;2022-10-16T06:21:34;100274.47;;;10.47;100.00
68193;BME280;55012;47.562;18.414;2022-10-16T06:23:59;100272.41;;;10.52;100.00
68193;BME280;55012;47.562;18.414;2022-10-16T06:26:27;100274.94;;;10.57;100.00
68193;BME280;55012;47.562;18.414;2022-10-16T06:28:57;100279.41;;;10.62;100.00
68193;BME280;55012;47.562;18.414;2022-10-16T06:31:23;100288.44;;;10.66;100.00
68193;BME280;55012;47.562;18.414;2022-10-16T06:33:52;100291.34;;;10.69;100.00
68193;BME280;55012;47.562;18.414;2022-10-16T06:36:18;100297.69;;;10.74;100.00
68193;BME280;55012;47.562;18.414;2022-10-16T06:38:44;100295.63;;;10.79;100.00
68193;BME280;55012;47.562;18.414;2022-10-16T06:41:16;100302.47;;;10.85;100.00
68193;BME280;55012;47.562;18.414;2022-10-16T06:43:42;100308.03;;;10.89;100.00
68193;BME280;55012;47.562;18.414;2022-10-16T06:46:10;100316.00;;;10.94;100.00
68193;BME280;55012;47.562;18.414;2022-10-16T06:48:36;100309.59;;;10.98;100.00
68193;BME280;55012;47.562;18.414;2022-10-16T06:53:32;100333.94;;;11.07;100.00
68193;BME280;55012;47.562;18.414;2022-10-16T06:56:09;100336.97;;;11.14;100.00
68193;BME280;55012;47.562;18.414;2022-10-16T06:58:36;100350.03;;;11.21;100.00
68193;BME280;55012;47.562;18.414;2022-10-16T07:01:01;100350.66;;;11.27;100.00
68193;BME280;55012;47.562;18.414;2022-10-16T07:03:27;100362.91;;;11.33;100.00
68193;BME280;55012;47.562;18.414;2022-10-16T07:05:52;100359.91;;;11.34;100.00
68193;BME280;55012;47.562;18.414;2022-10-16T07:08:18;100373.72;;;11.41;100.00
68193;BME280;55012;47.562;18.414;2022-10-16T07:10:43;100393.00;;;11.48;100.00
68193;BME280;55012;47.562;18.414;2022-10-16T07:13:09;100397.47;;;11.53;100.00
68193;BME280;55012;47.562;18.414;2022-10-16T07:15:38;100406.22;;;11.59;100.00
68193;BME280;55012;47.562;18.414;2022-10-16T07:18:03;100401.06;;;11.66;100.00
68193;BME280;55012;47.562;18.414;2022-10-16T07:20:29;100413.34;;;11.72;100.00
68193;BME280;55012;47.562;18.414;2022-10-16T07:22:54;100405.50;;;11.79;100.00
68193;BME280;55012;47.562;18.414;2022-10-16T07:25:19;100418.44;;;11.82;100.00
68193;BME280;55012;47.562;18.414;2022-10-16T07:27:45;100415.09;;;11.85;100.00
68193;BME280;55012;47.562;18.414;2022-10-16T07:30:10;100430.38;;;11.90;100.00
68193;BME280;55012;47.562;18.414;2022-10-16T07:32:36;100437.72;;;11.89;100.00
68193;BME280;55012;47.562;18.414;2022-10-16T07:35:01;100448.06;;;11.96;100.00
68193;BME280;55012;47.562;18.414;2022-10-16T07:37:27;100452.22;;;12.02;100.00
68193;BME280;55012;47.562;18.414;2022-10-16T07:39:52;100462.06;;;12.06;100.00
68193;BME280;55012;47.562;18.414;2022-10-16T07:42:18;100464.44;;;12.08;100.00
68193;BME280;55012;47.562;18.414;2022-10-16T07:44:45;100458.22;;;12.07;100.00
68193;BME280;55012;47.562;18.414;2022-10-16T07:47:10;100458.69;;;12.18;100.00
68193;BME280;55012;47.562;18.414;2022-10-16T07:49:36;100464.41;;;12.25;100.00
68193;BME280;55012;47.562;18.414;2022-10-16T07:52:01;100468.50;;;12.31;100.00
68193;BME280;55012;47.562;18.414;2022-10-16T07:54:27;100467.56;;;12.36;100.00
68193;BME280;55012;47.562;18.414;2022-10-16T07:56:52;100474.41;;;12.42;100.00
68193;BME280;55012;47.562;18.414;2022-10-16T07:59:18;100476.91;;;12.47;100.00
68193;BME280;55012;47.562;18.414;2022-10-16T08:01:43;100479.13;;;12.54;100.00
68193;BME280;55012;47.562;18.414;2022-10-16T08:04:09;100481.00;;;12.62;100.00
68193;BME280;55012;47.562;18.414;2022-10-16T08:06:39;100486.69;;;12.69;100.00
68193;BME280;55012;47.562;18.414;2022-10-16T08:09:06;100497.69;;;12.73;100.00
68193;BME280;55012;47.562;18.414;2022-10-16T08:11:33;100500.56;;;12.76;100.00
68193;BME280;55012;47.562;18.414;2022-10-16T08:13:58;100508.03;;;12.79;100.00
68193;BME280;55012;47.562;18.414;2022-10-16T08:16:24;100511.03;;;12.86;100.00
68193;BME280;55012;47.562;18.414;2022-10-16T08:18:49;100511.31;;;12.93;100.00
68193;BME280;55012;47.562;18.414;2022-10-16T08:21:18;100514.66;;;12.99;100.00
68193;BME280;55012;47.562;18.414;2022-10-16T08:23:44;100522.75;;;13.08;100.00
68193;BME280;55012;47.562;18.414;2022-10-16T08:26:10;100532.13;;;13.10;100.00
68193;BME280;55012;47.562;18.414;2022-10-16T08:28:36;100543.28;;;13.17;100.00
68193;BME280;55012;47.562;18.414;2022-10-16T08:31:09;100539.59;;;13.22;100.00
68193;BME280;55012;47.562;18.414;2022-10-16T08:33:35;100542.59;;;13.29;100.00
68193;BME280;55012;47.562;18.414;2022-10-16T08:36:02;100556.91;;;13.38;100.00
68193;BME280;55012;47.562;18.414;2022-10-16T08:38:27;100550.59;;;13.46;100.00
68193;BME280;55012;47.562;18.414;2022-10-16T08:41:00;100547.81;;;13.55;100.00
68193;BME280;55012;47.562;18.414;2022-10-16T08:43:30;100547.75;;;13.64;100.00
68193;BME280;55012;47.562;18.414;2022-10-16T08:46:30;100543.03;;;13.73;100.00
68193;BME280;55012;47.562;18.414;2022-10-16T08:48:59;100537.84;;;13.80;100.00
68193;BME280;55012;47.562;18.414;2022-10-16T08:51:32;100530.38;;;13.89;100.00
68193;BME280;55012;47.562;18.414;2022-10-16T08:54:02;100512.97;;;13.90;100.00
68193;BME280;55012;47.562;18.414;2022-10-16T08:56:28;100505.94;;;14.01;100.00
68193;BME280;55012;47.562;18.414;2022-10-16T08:58:54;100494.84;;;14.06;100.00
68193;BME280;55012;47.562;18.414;2022-10-16T09:01:22;100493.16;;;14.14;100.00
68193;BME280;55012;47.562;18.414;2022-10-16T09:06:46;100491.25;;;14.27;100.00
68193;BME280;55012;47.562;18.414;2022-10-16T09:12:20;100489.44;;;14.43;100.00
68193;BME280;55012;47.562;18.414;2022-10-16T09:20:27;100507.84;;;15.48;100.00
68193;BME280;55012;47.562;18.414;2022-10-16T09:25:29;100452.97;;;17.49;100.00
68193;BME280;55012;47.562;18.414;2022-10-16T09:27:55;100372.78;;;17.87;100.00
68193;BME280;55012;47.562;18.414;2022-10-16T09:30:21;100265.50;;;18.08;100.00
68193;BME280;55012;47.562;18.414;2022-10-16T09:32:51;100147.19;;;18.25;100.00
68193;BME280;55012;47.562;18.414;2022-10-16T09:35:21;99924.63;;;18.32;100.00
68193;BME280;55012;47.562;18.414;2022-10-16T09:37:50;99880.16;;;18.57;100.00
68193;BME280;55012;47.562;18.414;2022-10-16T09:42:56;99661.44;;;18.98;100.00
68193;BME280;55012;47.562;18.414;2022-10-16T09:45:23;99663.00;;;19.06;100.00
68193;BME280;55012;47.562;18.414;2022-10-16T09:47:49;99617.56;;;19.16;100.00
68193;BME280;55012;47.562;18.414;2022-10-16T09:50:26;99554.91;;;19.03;100.00
68193;BME280;55012;47.562;18.414;2022-10-16T09:53:12;99515.69;;;19.10;100.00
68193;BME280;55012;47.562;18.414;2022-10-16T09:55:52;99483.22;;;19.01;100.00
68193;BME280;55012;47.562;18.414;2022-10-16T09:58:21;99476.16;;;18.93;100.00
68193;BME280;55012;47.562;18.414;2022-10-16T10:00:50;99453.03;;;19.08;100.00
68193;BME280;55012;47.562;18.414;2022-10-16T10:03:37;99430.66;;;19.17;100.00
68193;BME280;55012;47.562;18.414;2022-10-16T10:06:17;99407.66;;;18.90;100.00
68193;BME280;55012;47.562;18.414;2022-10-16T10:09:04;99419.09;;;18.13;100.00
68193;BME280;55012;47.562;18.414;2022-10-16T10:11:59;99474.88;;;17.59;100.00
68193;BME280;55012;47.562;18.414;2022-10-16T10:14:37;99530.94;;;17.17;100.00
68193;BME280;55012;47.562;18.414;2022-10-16T10:19:37;99635.19;;;16.71;100.00
68193;BME280;55012;47.562;18.414;2022-10-16T10:33:28;99802.03;;;16.55;100.00
68193;BME280;55012;47.562;18.414;2022-10-16T10:36:04;99796.56;;;16.55;100.00
68193;BME280;55012;47.562;18.414;2022-10-16T10:38:40;99784.88;;;16.55;100.00
68193;BME280;55012;47.562;18.414;2022-10-16T10:46:35;99796.22;;;16.61;100.00
68193;BME280;55012;47.562;18.414;2022-10-16T10:57:06;99750.00;;;16.75;100.00
68193;BME280;55012;47.562;18.414;2022-10-16T10:59:55;99750.06;;;16.82;100.00
68193;BME280;55012;47.562;18.414;2022-10-16T11:02:42;99737.66;;;16.88;100.00
68193;BME280;55012;47.562;18.414;2022-10-16T11:08:00;99684.63;;;16.96;100.00
68193;BME280;55012;47.562;18.414;2022-10-16T11:10:33;99682.72;;;17.04;100.00
68193;BME280;55012;47.562;18.414;2022-10-16T11:13:18;99680.84;;;17.11;100.00
68193;BME280;55012;47.562;18.414;2022-10-16T11:15:47;99654.34;;;17.16;100.00
68193;BME280;55012;47.562;18.414;2022-10-16T11:18:21;99632.47;;;17.19;100.00
68193;BME280;55012;47.562;18.414;2022-10-16T11:20:51;99616.88;;;17.20;100.00
68193;BME280;55012;47.562;18.414;2022-10-16T11:23:36;99602.06;;;17.24;100.00
68193;BME280;55012;47.562;18.414;2022-10-16T11:26:08;99592.69;;;17.29;100.00
68193;BME280;55012;47.562;18.414;2022-10-16T11:31:40;99590.06;;;17.39;100.00
68193;BME280;55012;47.562;18.414;2022-10-16T11:34:28;99587.38;;;17.47;100.00
68193;BME280;55012;47.562;18.414;2022-10-16T11:37:08;99569.00;;;17.51;100.00
68193;BME280;55012;47.562;18.414;2022-10-16T11:39:38;99563.56;;;17.58;100.00
68193;BME280;55012;47.562;18.414;2022-10-16T11:42:16;99526.06;;;17.62;100.00
68193;BME280;55012;47.562;18.414;2022-10-16T11:44:53;99510.84;;;17.64;100.00
68193;BME280;55012;47.562;18.414;2022-10-16T11:47:45;99505.38;;;17.68;100.00
68193;BME280;55012;47.562;18.414;2022-10-16T11:55:44;99457.38;;;17.85;100.00
68193;BME280;55012;47.562;18.414;2022-10-16T11:58:40;99443.72;;;17.88;100.00
68193;BME280;55012;47.562;18.414;2022-10-16T12:03:56;99423.78;;;17.99;100.00
68193;BME280;55012;47.562;18.414;2022-10-16T12:11:49;99400.69;;;18.10;100.00
68193;BME280;55012;47.562;18.414;2022-10-16T12:17:02;99395.25;;;18.21;100.00
68193;BME280;55012;47.562;18.414;2022-10-16T12:19:31;99385.06;;;18.25;100.00
68193;BME280;55012;47.562;18.414;2022-10-16T12:21:59;99390.91;;;18.27;100.00
68193;BME280;55012;47.562;18.414;2022-10-16T12:24:36;99374.88;;;18.29;100.00
68193;BME280;55012;47.562;18.414;2022-10-16T12:27:20;99368.59;;;18.29;100.00
68193;BME280;55012;47.562;18.414;2022-10-16T12:29:54;99370.97;;;18.30;100.00
68193;BME280;55012;47.562;18.414;2022-10-16T12:32:36;99378.38;;;18.37;100.00
68193;BME280;55012;47.562;18.414;2022-10-16T12:35:05;99361.94;;;18.40;100.00
68193;BME280;55012;47.562;18.414;2022-10-16T12:37:35;99347.06;;;18.41;100.00
68193;BME280;55012;47.562;18.414;2022-10-16T12:42:50;99335.31;;;18.48;100.00
68193;BME280;55012;47.562;18.414;2022-10-16T12:45:29;99328.66;;;18.49;100.00
68193;BME280;55012;47.562;18.414;2022-10-16T12:48:00;99320.81;;;18.51;100.00
68193;BME280;55012;47.562;18.414;2022-10-16T12:50:38;99325.53;;;18.54;100.00
68193;BME280;55012;47.562;18.414;2022-10-16T12:53:23;99310.25;;;18.57;100.00
68193;BME280;55012;47.562;18.414;2022-10-16T12:58:54;99302.44;;;18.55;100.00
68193;BME280;55012;47.562;18.414;2022-10-16T13:08:09;99331.72;;;18.76;100.00
68193;BME280;55012;47.562;18.414;2022-10-16T13:10:13;99341.97;;;19.45;100.00
68193;BME280;55012;47.562;18.414;2022-10-16T13:21:37;99204.88;;;20.17;100.00
68193;BME280;55012;47.562;18.414;2022-10-16T13:27:01;99171.56;;;20.15;100.00
68193;BME280;55012;47.562;18.414;2022-10-16T13:29:31;99164.44;;;20.17;100.00
68193;BME280;55012;47.562;18.414;2022-10-16T13:31:58;99174.25;;;20.18;100.00
68193;BME280;55012;47.562;18.414;2022-10-16T13:34:26;99159.75;;;20.18;100.00
68193;BME280;55012;47.562;18.414;2022-10-16T13:36:53;99151.50;;;20.18;100.00
68193;BME280;55012;47.562;18.414;2022-10-16T13:39:27;99145.66;;;20.16;100.00
68193;BME280;55012;47.562;18.414;2022-10-16T13:44:36;99138.97;;;20.17;100.00
68193;BME280;55012;47.562;18.414;2022-10-16T13:47:04;99141.28;;;20.18;100.00
68193;BME280;55012;47.562;18.414;2022-10-16T13:49:30;99142.03;;;20.23;100.00
68193;BME280;55012;47.562;18.414;2022-10-16T13:51:57;99143.22;;;20.22;100.00
68193;BME280;55012;47.562;18.414;2022-10-16T13:54:24;99132.19;;;20.25;100.00
68193;BME280;55012;47.562;18.414;2022-10-16T13:56:51;99136.91;;;20.25;100.00
68193;BME280;55012;47.562;18.414;2022-10-16T13:59:32;99132.97;;;20.26;100.00
68193;BME280;55012;47.562;18.414;2022-10-16T14:01:59;99134.22;;;20.21;100.00
68193;BME280;55012;47.562;18.414;2022-10-16T14:04:32;99131.50;;;20.17;100.00
68193;BME280;55012;47.562;18.414;2022-10-16T14:06:58;99128.38;;;20.19;100.00
68193;BME280;55012;47.562;18.414;2022-10-16T14:09:26;99142.44;;;20.21;100.00
68193;BME280;55012;47.562;18.414;2022-10-16T14:12:08;99152.84;;;20.06;100.00
68193;BME280;55012;47.562;18.414;2022-10-16T14:14:47;99139.38;;;19.81;100.00
68193;BME280;55012;47.562;18.414;2022-10-16T14:17:34;99121.59;;;19.59;100.00
68193;BME280;55012;47.562;18.414;2022-10-16T14:20:03;99111.53;;;19.42;100.00
68193;BME280;55012;47.562;18.414;2022-10-16T14:22:40;99098.31;;;19.33;100.00
68193;BME280;55012;47.562;18.414;2022-10-16T14:28:04;99115.28;;;19.17;100.00
68193;BME280;55012;47.562;18.414;2022-10-16T14:30:33;99113.38;;;19.11;100.00
68193;BME280;55012;47.562;18.414;2022-10-16T14:33:05;99121.63;;;19.11;100.00
68193;BME280;55012;47.562;18.414;2022-10-16T14:35:39;99129.06;;;19.14;100.00